createdAt,value
2023-03-22T00:00:00.210Z,18.64
2023-03-22T00:00:22.110Z,18.65
2023-03-22T00:00:43.785Z,18.66
2023-03-22T00:01:11.302Z,18.59
2023-03-22T00:01:34.772Z,18.55
2023-03-22T00:01:56.612Z,18.66
2023-03-22T00:02:18.264Z,18.67
2023-03-22T00:02:42.059Z,18.67
2023-03-22T00:03:04.786Z,18.70
2023-03-22T00:03:27.606Z,18.61
2023-03-22T00:03:50.787Z,18.68
2023-03-22T00:04:12.467Z,18.70
2023-03-22T00:04:34.158Z,18.70
2023-03-22T00:04:57.058Z,18.70
2023-03-22T00:05:18.984Z,18.73
2023-03-22T00:05:40.650Z,18.70
2023-03-22T00:06:02.384Z,18.73
2023-03-22T00:06:26.641Z,18.65
2023-03-22T00:06:49.516Z,18.65
2023-03-22T00:07:12.286Z,18.57
2023-03-22T00:07:34.064Z,18.64
2023-03-22T00:07:57.919Z,18.65
2023-03-22T00:08:20.834Z,18.65
2023-03-22T00:08:43.481Z,18.65
2023-03-22T00:09:05.131Z,18.59
2023-03-22T00:09:27.726Z,18.59
2023-03-22T00:09:49.405Z,18.55
2023-03-22T00:10:15.132Z,18.58
2023-03-22T00:10:38.498Z,18.57
2023-03-22T00:11:01.565Z,18.57
2023-03-22T00:11:24.321Z,18.61
2023-03-22T00:11:46.224Z,18.62
2023-03-22T00:12:08.904Z,18.64
2023-03-22T00:12:30.554Z,18.61
2023-03-22T00:12:52.241Z,18.56
2023-03-22T00:13:13.854Z,18.54
2023-03-22T00:13:37.101Z,18.47
2023-03-22T00:14:01.270Z,18.50
2023-03-22T00:14:23.025Z,18.54
2023-03-22T00:14:45.417Z,18.55
2023-03-22T00:15:08.131Z,18.51
2023-03-22T00:15:30.792Z,18.57
2023-03-22T00:15:52.418Z,18.62
2023-03-22T00:16:14.847Z,18.61
2023-03-22T00:16:36.656Z,18.64
2023-03-22T00:17:01.874Z,18.65
2023-03-22T00:17:25.746Z,18.64
2023-03-22T00:17:47.770Z,18.63
2023-03-22T00:18:12.443Z,18.51
2023-03-22T00:18:35.079Z,18.57
2023-03-22T00:18:56.705Z,18.59
2023-03-22T00:19:18.465Z,18.57
2023-03-22T00:19:42.094Z,18.43
2023-03-22T00:20:08.564Z,18.50
2023-03-22T00:20:30.526Z,18.58
2023-03-22T00:20:54.177Z,18.61
2023-03-22T00:21:17.176Z,18.63
2023-03-22T00:21:39.872Z,18.65
2023-03-22T00:22:03.494Z,18.67
2023-03-22T00:22:26.622Z,18.71
2023-03-22T00:22:48.231Z,18.66
2023-03-22T00:23:10.843Z,18.63
2023-03-22T00:23:32.482Z,18.69
2023-03-22T00:23:54.261Z,18.70
2023-03-22T00:24:15.996Z,18.69
2023-03-22T00:24:39.164Z,18.70
2023-03-22T00:25:08.128Z,18.71
2023-03-22T00:25:32.620Z,18.72
2023-03-22T00:25:55.405Z,18.72
2023-03-22T00:26:17.938Z,18.63
2023-03-22T00:26:39.568Z,18.75
2023-03-22T00:27:02.681Z,18.70
2023-03-22T00:27:25.981Z,18.70
2023-03-22T00:27:48.618Z,18.70
2023-03-22T00:28:10.274Z,18.73
2023-03-22T00:28:32.305Z,18.73
2023-03-22T00:28:53.885Z,18.73
2023-03-22T00:29:16.497Z,18.77
2023-03-22T00:29:38.301Z,18.79
2023-03-22T00:29:59.931Z,18.81
2023-03-22T00:30:21.583Z,18.84
2023-03-22T00:30:51.000Z,18.83
2023-03-22T00:31:13.848Z,18.79
2023-03-22T00:31:35.736Z,18.62
2023-03-22T00:31:57.649Z,18.79
2023-03-22T00:32:19.792Z,18.79
2023-03-22T00:32:42.348Z,18.80
2023-03-22T00:33:06.168Z,18.81
2023-03-22T00:33:28.389Z,18.80
2023-03-22T00:33:50.299Z,18.81
2023-03-22T00:34:12.714Z,18.85
2023-03-22T00:34:35.565Z,18.85
2023-03-22T00:34:57.668Z,18.80
2023-03-22T00:35:22.238Z,18.78
2023-03-22T00:35:48.533Z,18.87
2023-03-22T00:36:13.096Z,18.87
2023-03-22T00:36:34.799Z,18.85
2023-03-22T00:36:56.427Z,18.88
2023-03-22T00:37:18.247Z,18.81
2023-03-22T00:37:40.570Z,18.86
2023-03-22T00:38:14.255Z,18.83
2023-03-22T00:38:42.783Z,18.82
2023-03-22T00:39:05.236Z,18.83
2023-03-22T00:39:27.911Z,18.79
2023-03-22T00:39:49.580Z,18.86
2023-03-22T00:40:13.395Z,18.87
2023-03-22T00:40:36.488Z,18.88
2023-03-22T00:41:05.346Z,18.82
2023-03-22T00:41:28.005Z,18.91
2023-03-22T00:41:49.643Z,18.92
2023-03-22T00:42:11.293Z,18.87
2023-03-22T00:42:33.071Z,18.83
2023-03-22T00:42:55.664Z,18.79
2023-03-22T00:43:17.574Z,18.78
2023-03-22T00:43:40.123Z,18.78
2023-03-22T00:44:02.732Z,18.83
2023-03-22T00:44:25.652Z,18.84
2023-03-22T00:44:47.297Z,18.84
2023-03-22T00:45:11.418Z,18.80
2023-03-22T00:45:36.221Z,18.75
2023-03-22T00:45:58.038Z,18.79
2023-03-22T00:46:21.239Z,18.80
2023-03-22T00:46:42.943Z,18.86
2023-03-22T00:47:05.821Z,18.88
2023-03-22T00:47:27.589Z,18.85
2023-03-22T00:47:49.590Z,18.78
2023-03-22T00:48:14.592Z,18.82
2023-03-22T00:48:37.408Z,18.84
2023-03-22T00:48:58.973Z,18.84
2023-03-22T00:49:21.770Z,18.87
2023-03-22T00:49:43.570Z,18.90
2023-03-22T00:50:07.605Z,18.90
2023-03-22T00:50:30.222Z,18.93
2023-03-22T00:50:51.920Z,18.95
2023-03-22T00:51:14.270Z,18.88
2023-03-22T00:51:35.938Z,18.97
2023-03-22T00:51:58.553Z,18.97
2023-03-22T00:52:21.356Z,18.97
2023-03-22T00:52:43.320Z,18.95
2023-03-22T00:53:05.809Z,18.95
2023-03-22T00:53:29.080Z,18.97
2023-03-22T00:53:54.301Z,18.96
2023-03-22T00:54:17.315Z,18.95
2023-03-22T00:54:41.918Z,18.95
2023-03-22T00:55:08.379Z,18.94
2023-03-22T00:55:30.446Z,18.93
2023-03-22T00:55:54.406Z,18.89
2023-03-22T00:56:16.263Z,18.93
2023-03-22T00:56:45.408Z,18.89
2023-03-22T00:57:08.421Z,18.88
2023-03-22T00:57:31.342Z,18.81
2023-03-22T00:57:53.217Z,18.85
2023-03-22T00:58:15.220Z,18.81
2023-03-22T00:58:37.142Z,18.80
2023-03-22T00:58:59.715Z,18.80
2023-03-22T00:59:21.996Z,18.78
2023-03-22T00:59:43.879Z,18.78
2023-03-22T01:00:16.009Z,18.76
2023-03-22T01:00:41.096Z,18.74
2023-03-22T01:01:03.008Z,18.74
2023-03-22T01:01:24.821Z,18.63
2023-03-22T01:01:48.723Z,18.71
2023-03-22T01:02:13.476Z,18.71
2023-03-22T01:02:35.205Z,18.73
2023-03-22T01:02:59.704Z,18.70
2023-03-22T01:03:22.028Z,18.72
2023-03-22T01:03:45.724Z,18.72
2023-03-22T01:04:15.287Z,18.72
2023-03-22T01:04:37.045Z,18.77
2023-03-22T01:05:00.351Z,18.68
2023-03-22T01:05:22.065Z,18.77
2023-03-22T01:05:45.463Z,18.76
2023-03-22T01:06:08.162Z,18.74
2023-03-22T01:06:31.015Z,18.73
2023-03-22T01:06:59.291Z,18.68
2023-03-22T01:07:22.116Z,18.74
2023-03-22T01:07:44.793Z,18.74
2023-03-22T01:08:08.869Z,18.72
2023-03-22T01:08:33.470Z,18.76
2023-03-22T01:08:57.281Z,18.77
2023-03-22T01:09:23.865Z,18.76
2023-03-22T01:09:46.604Z,18.72
2023-03-22T01:10:10.585Z,18.78
2023-03-22T01:10:32.919Z,18.78
2023-03-22T01:10:55.875Z,18.70
2023-03-22T01:11:18.750Z,18.78
2023-03-22T01:11:41.007Z,18.81
2023-03-22T01:12:02.830Z,18.81
2023-03-22T01:12:24.509Z,18.84
2023-03-22T01:12:46.350Z,18.80
2023-03-22T01:13:09.675Z,18.77
2023-03-22T01:13:31.420Z,18.79
2023-03-22T01:13:56.158Z,18.79
2023-03-22T01:14:19.460Z,18.80
2023-03-22T01:14:42.104Z,18.77
2023-03-22T01:15:50.522Z,18.79
2023-03-22T01:16:13.401Z,18.81
2023-03-22T01:16:35.744Z,18.81
2023-03-22T01:16:57.713Z,18.70
2023-03-22T01:17:19.670Z,18.82
2023-03-22T01:17:43.255Z,18.85
2023-03-22T01:18:05.551Z,18.80
2023-03-22T01:18:27.176Z,18.81
2023-03-22T01:18:48.818Z,18.83
2023-03-22T01:19:11.787Z,18.83
2023-03-22T01:19:33.798Z,18.85
2023-03-22T01:19:55.784Z,18.84
2023-03-22T01:20:18.185Z,18.82
2023-03-22T01:20:41.027Z,18.79
2023-03-22T01:21:03.186Z,18.80
2023-03-22T01:21:25.031Z,18.83
2023-03-22T01:21:46.828Z,18.82
2023-03-22T01:22:08.670Z,18.81
2023-03-22T01:22:31.848Z,18.82
2023-03-22T01:22:53.961Z,18.80
2023-03-22T01:23:15.889Z,18.78
2023-03-22T01:23:38.959Z,18.80
2023-03-22T01:24:00.684Z,18.82
2023-03-22T01:24:22.654Z,18.80
2023-03-22T01:24:44.433Z,18.80
2023-03-22T01:25:07.024Z,18.79
2023-03-22T01:25:31.639Z,18.80
2023-03-22T01:25:53.303Z,18.80
2023-03-22T01:26:16.383Z,18.81
2023-03-22T01:26:38.855Z,18.79
2023-03-22T01:27:00.786Z,18.79
2023-03-22T01:27:23.370Z,18.80
2023-03-22T01:27:45.401Z,18.79
2023-03-22T01:28:07.716Z,18.78
2023-03-22T01:28:30.307Z,18.75
2023-03-22T01:28:52.930Z,18.75
2023-03-22T01:29:15.587Z,18.74
2023-03-22T01:29:37.337Z,18.70
2023-03-22T01:29:58.956Z,18.72
2023-03-22T01:30:20.668Z,18.70
2023-03-22T01:30:43.569Z,18.72
2023-03-22T01:31:05.711Z,18.74
2023-03-22T01:31:27.413Z,18.71
2023-03-22T01:31:49.510Z,18.71
2023-03-22T01:32:11.288Z,18.72
2023-03-22T01:32:34.222Z,18.72
2023-03-22T01:32:55.818Z,18.74
2023-03-22T01:33:17.946Z,18.77
2023-03-22T01:33:39.783Z,18.75
2023-03-22T01:34:02.589Z,18.75
2023-03-22T01:34:24.410Z,18.79
2023-03-22T01:34:46.078Z,18.70
2023-03-22T01:35:09.986Z,18.77
2023-03-22T01:35:33.156Z,18.78
2023-03-22T01:35:56.315Z,18.80
2023-03-22T01:36:18.400Z,18.72
2023-03-22T01:36:40.123Z,18.78
2023-03-22T01:37:02.189Z,18.77
2023-03-22T01:37:27.554Z,18.79
2023-03-22T01:37:50.190Z,18.78
2023-03-22T01:38:13.239Z,18.78
2023-03-22T01:38:45.415Z,18.76
2023-03-22T01:39:09.320Z,18.77
2023-03-22T01:39:32.820Z,18.75
2023-03-22T01:39:58.813Z,18.69
2023-03-22T01:40:20.705Z,18.77
2023-03-22T01:40:42.800Z,18.76
2023-03-22T01:41:05.869Z,18.77
2023-03-22T01:41:35.026Z,18.74
2023-03-22T01:42:02.332Z,18.76
2023-03-22T01:42:25.790Z,18.74
2023-03-22T01:42:49.171Z,18.76
2023-03-22T01:43:15.896Z,18.78
2023-03-22T01:43:38.205Z,18.75
2023-03-22T01:44:13.599Z,18.80
2023-03-22T01:44:36.623Z,18.80
2023-03-22T01:45:38.129Z,18.82
2023-03-22T01:46:01.266Z,18.82
2023-03-22T01:46:25.797Z,18.78
2023-03-22T01:46:49.053Z,18.76
2023-03-22T01:47:11.658Z,18.79
2023-03-22T01:47:35.241Z,18.84
2023-03-22T01:48:02.181Z,18.81
2023-03-22T01:48:31.323Z,18.86
2023-03-22T01:48:53.243Z,18.83
2023-03-22T01:49:18.153Z,18.75
2023-03-22T01:49:40.797Z,18.81
2023-03-22T01:50:02.573Z,18.79
2023-03-22T01:50:25.913Z,18.77
2023-03-22T01:50:56.726Z,18.77
2023-03-22T01:51:25.038Z,18.69
2023-03-22T01:52:00.613Z,18.72
2023-03-22T01:52:31.393Z,18.69
2023-03-22T01:53:09.628Z,18.66
2023-03-22T01:53:36.387Z,18.66
2023-03-22T01:54:02.421Z,18.73
2023-03-22T01:54:30.092Z,18.70
2023-03-22T01:54:55.191Z,18.72
2023-03-22T01:55:28.057Z,18.70
2023-03-22T01:56:03.896Z,18.67
2023-03-22T01:56:30.188Z,18.67
2023-03-22T01:56:54.848Z,18.64
2023-03-22T01:57:26.758Z,18.66
2023-03-22T01:57:50.575Z,18.65
2023-03-22T01:58:26.074Z,18.51
2023-03-22T01:58:55.358Z,18.63
2023-03-22T01:59:26.803Z,18.57
2023-03-22T02:00:18.868Z,18.38
2023-03-22T02:01:08.373Z,18.51
2023-03-22T02:01:47.122Z,18.50
2023-03-22T02:02:19.865Z,18.51
2023-03-22T02:02:52.379Z,18.54
2023-03-22T02:03:31.216Z,18.38
2023-03-22T02:03:58.400Z,18.53
2023-03-22T02:04:23.439Z,18.54
2023-03-22T02:04:50.418Z,18.56
2023-03-22T02:05:13.143Z,18.55
2023-03-22T02:05:37.425Z,18.54
2023-03-22T02:05:59.884Z,18.56
2023-03-22T02:06:22.170Z,18.55
2023-03-22T02:06:51.629Z,18.55
2023-03-22T02:07:25.850Z,18.52
2023-03-22T02:07:48.847Z,18.53
2023-03-22T02:08:10.546Z,18.53
2023-03-22T02:08:48.238Z,18.55
2023-03-22T02:09:17.309Z,18.49
2023-03-22T02:09:41.310Z,18.56
2023-03-22T02:10:04.960Z,18.57
2023-03-22T02:10:37.552Z,18.57
2023-03-22T02:11:02.651Z,18.60
2023-03-22T02:11:30.864Z,18.57
2023-03-22T02:12:05.986Z,18.57
2023-03-22T02:12:38.373Z,18.61
2023-03-22T02:13:38.880Z,18.59
2023-03-22T02:14:39.340Z,18.48
2023-03-22T02:15:47.240Z,18.54
2023-03-22T02:16:43.649Z,18.53
2023-03-22T02:17:25.951Z,18.52
2023-03-22T02:18:11.317Z,18.51
2023-03-22T02:18:47.005Z,18.51
2023-03-22T02:19:35.713Z,18.50
2023-03-22T02:20:38.503Z,18.41
2023-03-22T02:21:28.947Z,18.42
2023-03-22T02:22:22.055Z,18.31
2023-03-22T02:23:09.113Z,18.39
2023-03-22T02:24:09.615Z,18.36
2023-03-22T02:25:07.188Z,18.34
2023-03-22T02:25:59.124Z,18.30
2023-03-22T02:26:43.925Z,18.29
2023-03-22T02:27:28.874Z,18.34
2023-03-22T02:28:15.685Z,18.38
2023-03-22T02:28:45.581Z,18.38
2023-03-22T02:29:15.179Z,18.32
2023-03-22T02:29:45.016Z,18.35
2023-03-22T02:30:30.835Z,18.33
2023-03-22T02:31:15.360Z,18.36
2023-03-22T02:32:04.125Z,18.32
2023-03-22T02:33:23.969Z,18.34
2023-03-22T02:34:27.233Z,18.33
2023-03-22T02:35:21.021Z,18.29
2023-03-22T02:35:55.883Z,18.30
2023-03-22T02:36:48.317Z,18.32
2023-03-22T02:37:47.408Z,18.30
2023-03-22T02:38:37.008Z,18.31
2023-03-22T02:39:32.513Z,18.20
2023-03-22T02:39:59.318Z,18.22
2023-03-22T02:40:28.991Z,18.23
2023-03-22T02:40:57.364Z,18.26
2023-03-22T02:41:29.904Z,18.28
2023-03-22T02:42:04.111Z,18.28
2023-03-22T02:42:40.776Z,18.30
2023-03-22T02:43:12.830Z,18.30
2023-03-22T02:43:39.193Z,18.27
2023-03-22T02:44:10.183Z,18.31
2023-03-22T02:44:41.064Z,18.30
2023-03-22T02:45:10.931Z,18.32
2023-03-22T02:45:37.957Z,18.35
2023-03-22T02:46:06.276Z,18.38
2023-03-22T02:46:32.688Z,18.36
2023-03-22T02:47:03.944Z,18.35
2023-03-22T02:47:35.444Z,18.33
2023-03-22T02:48:05.733Z,18.36
2023-03-22T02:48:33.699Z,18.37
2023-03-22T02:49:03.903Z,18.32
2023-03-22T02:49:36.130Z,18.38
2023-03-22T02:50:04.639Z,18.30
2023-03-22T02:50:31.521Z,18.36
2023-03-22T02:50:55.656Z,18.36
2023-03-22T02:51:21.321Z,18.37
2023-03-22T02:51:47.239Z,18.39
2023-03-22T02:52:17.742Z,18.38
2023-03-22T02:52:44.147Z,18.37
2023-03-22T02:53:14.684Z,18.37
2023-03-22T02:53:42.729Z,18.39
2023-03-22T02:54:09.226Z,18.40
2023-03-22T02:54:39.164Z,18.37
2023-03-22T02:55:05.950Z,18.41
2023-03-22T02:55:33.541Z,18.35
2023-03-22T02:55:58.501Z,18.33
2023-03-22T02:56:26.575Z,18.35
2023-03-22T02:56:53.319Z,18.36
2023-03-22T02:57:22.778Z,18.37
2023-03-22T02:57:51.154Z,18.37
2023-03-22T02:58:17.811Z,18.32
2023-03-22T02:58:45.679Z,18.36
2023-03-22T02:59:12.179Z,18.36
2023-03-22T02:59:38.389Z,18.36
2023-03-22T03:00:04.084Z,18.35
2023-03-22T03:00:26.904Z,18.39
2023-03-22T03:00:53.078Z,18.34
2023-03-22T03:01:19.986Z,18.36
2023-03-22T03:01:46.350Z,18.39
2023-03-22T03:02:12.045Z,18.37
2023-03-22T03:02:35.251Z,18.31
2023-03-22T03:02:59.987Z,18.30
2023-03-22T03:03:25.589Z,18.25
2023-03-22T03:03:51.235Z,18.29
2023-03-22T03:04:17.809Z,18.29
2023-03-22T03:04:44.733Z,18.28
2023-03-22T03:05:11.905Z,18.29
2023-03-22T03:05:35.223Z,18.31
2023-03-22T03:06:00.809Z,18.32
2023-03-22T03:06:26.272Z,18.32
2023-03-22T03:06:52.144Z,18.32
2023-03-22T03:07:17.717Z,18.28
2023-03-22T03:07:43.314Z,18.30
2023-03-22T03:08:09.236Z,18.30
2023-03-22T03:08:35.541Z,18.28
2023-03-22T03:08:58.272Z,18.29
2023-03-22T03:09:22.569Z,18.28
2023-03-22T03:09:46.774Z,18.23
2023-03-22T03:10:13.274Z,18.26
2023-03-22T03:10:38.396Z,18.28
2023-03-22T03:11:01.463Z,18.24
2023-03-22T03:11:24.300Z,18.26
2023-03-22T03:11:48.375Z,18.26
2023-03-22T03:12:14.805Z,18.26
2023-03-22T03:12:36.567Z,18.26
2023-03-22T03:12:58.198Z,18.16
2023-03-22T03:13:20.347Z,18.27
2023-03-22T03:13:43.014Z,18.29
2023-03-22T03:14:05.646Z,18.24
2023-03-22T03:14:29.523Z,18.24
2023-03-22T03:14:52.201Z,18.26
2023-03-22T03:15:16.861Z,18.28
2023-03-22T03:15:42.425Z,18.28
2023-03-22T03:16:07.523Z,18.24
2023-03-22T03:16:34.982Z,18.25
2023-03-22T03:17:13.187Z,18.25
2023-03-22T03:17:45.952Z,18.23
2023-03-22T03:18:18.692Z,18.23
2023-03-22T03:18:46.821Z,18.24
2023-03-22T03:19:19.827Z,18.28
2023-03-22T03:19:49.864Z,18.27
2023-03-22T03:20:34.404Z,18.26
2023-03-22T03:21:02.908Z,18.20
2023-03-22T03:21:35.553Z,18.27
2023-03-22T03:22:04.231Z,18.27
2023-03-22T03:22:41.286Z,18.27
2023-03-22T03:23:15.233Z,18.26
2023-03-22T03:23:50.232Z,18.26
2023-03-22T03:24:23.398Z,18.29
2023-03-22T03:24:51.716Z,18.25
2023-03-22T03:25:24.118Z,18.26
2023-03-22T03:25:57.805Z,18.29
2023-03-22T03:26:29.038Z,18.28
2023-03-22T03:26:59.808Z,18.17
2023-03-22T03:27:27.997Z,18.26
2023-03-22T03:27:59.270Z,18.30
2023-03-22T03:28:30.376Z,18.29
2023-03-22T03:28:58.321Z,18.31
2023-03-22T03:29:25.388Z,18.33
2023-03-22T03:29:51.164Z,18.31
2023-03-22T03:30:16.496Z,18.28
2023-03-22T03:30:46.105Z,18.26
2023-03-22T03:31:16.691Z,18.25
2023-03-22T03:31:44.916Z,18.29
2023-03-22T03:32:11.060Z,18.20
2023-03-22T03:32:36.181Z,18.21
2023-03-22T03:33:09.294Z,18.23
2023-03-22T03:33:34.335Z,18.22
2023-03-22T03:34:09.659Z,18.23
2023-03-22T03:34:36.873Z,18.23
2023-03-22T03:35:05.401Z,18.24
2023-03-22T03:35:32.497Z,18.19
2023-03-22T03:36:00.634Z,18.21
2023-03-22T03:36:25.304Z,18.18
2023-03-22T03:36:53.781Z,18.21
2023-03-22T03:37:22.684Z,18.19
2023-03-22T03:37:47.902Z,18.21
2023-03-22T03:38:14.671Z,18.21
2023-03-22T03:38:40.962Z,18.19
2023-03-22T03:39:07.763Z,18.13
2023-03-22T03:39:33.461Z,18.17
2023-03-22T03:40:02.474Z,18.12
2023-03-22T03:40:29.418Z,18.13
2023-03-22T03:40:55.972Z,18.18
2023-03-22T03:41:20.058Z,18.18
2023-03-22T03:41:46.351Z,18.20
2023-03-22T03:42:14.321Z,18.19
2023-03-22T03:42:38.330Z,18.17
2023-03-22T03:43:03.744Z,18.06
2023-03-22T03:43:25.536Z,18.12
2023-03-22T03:43:49.228Z,18.11
2023-03-22T03:44:11.547Z,18.12
2023-03-22T03:44:36.139Z,18.10
2023-03-22T03:45:00.881Z,18.08
2023-03-22T03:45:23.658Z,18.09
2023-03-22T03:45:45.740Z,18.07
2023-03-22T03:46:08.476Z,18.06
2023-03-22T03:46:30.766Z,18.05
2023-03-22T03:46:54.854Z,18.08
2023-03-22T03:47:17.204Z,18.14
2023-03-22T03:47:44.257Z,18.08
2023-03-22T03:48:09.485Z,18.12
2023-03-22T03:48:35.539Z,18.16
2023-03-22T03:48:58.708Z,18.14
2023-03-22T03:49:23.853Z,18.15
2023-03-22T03:49:47.788Z,18.15
2023-03-22T03:50:11.496Z,18.10
2023-03-22T03:50:34.520Z,18.10
2023-03-22T03:50:58.085Z,18.08
2023-03-22T03:51:19.921Z,18.10
2023-03-22T03:51:49.412Z,18.10
2023-03-22T03:52:13.265Z,18.09
2023-03-22T03:52:35.595Z,18.15
2023-03-22T03:52:58.268Z,18.09
2023-03-22T03:53:20.078Z,18.07
2023-03-22T03:53:42.792Z,18.04
2023-03-22T03:54:04.572Z,18.04
2023-03-22T03:54:26.477Z,18.06
2023-03-22T03:54:49.541Z,18.03
2023-03-22T03:55:16.342Z,18.04
2023-03-22T03:55:38.978Z,18.08
2023-03-22T03:56:01.093Z,18.06
2023-03-22T03:56:29.777Z,18.07
2023-03-22T03:56:54.705Z,18.03
2023-03-22T03:57:17.388Z,18.09
2023-03-22T03:57:39.366Z,18.07
2023-03-22T03:58:01.009Z,18.15
2023-03-22T03:58:23.111Z,18.07
2023-03-22T03:58:45.856Z,18.14
2023-03-22T03:59:09.089Z,18.12
2023-03-22T03:59:32.835Z,18.15
2023-03-22T04:00:04.558Z,18.06
2023-03-22T04:00:47.618Z,18.03
2023-03-22T04:01:28.560Z,17.89
2023-03-22T04:02:10.894Z,17.98
2023-03-22T04:02:34.007Z,17.86
2023-03-22T04:02:56.366Z,17.92
2023-03-22T04:03:34.045Z,17.93
2023-03-22T04:04:01.647Z,17.95
2023-03-22T04:04:43.616Z,17.94
2023-03-22T04:05:07.397Z,17.90
2023-03-22T04:05:29.022Z,17.92
2023-03-22T04:05:50.646Z,17.90
2023-03-22T04:06:12.583Z,17.89
2023-03-22T04:06:40.178Z,17.85
2023-03-22T04:07:07.089Z,17.81
2023-03-22T04:07:31.298Z,17.81
2023-03-22T04:07:53.190Z,17.67
2023-03-22T04:08:15.967Z,17.72
2023-03-22T04:08:37.919Z,17.69
2023-03-22T04:09:01.717Z,17.74
2023-03-22T04:09:29.901Z,17.79
2023-03-22T04:09:58.237Z,17.82
2023-03-22T04:10:26.186Z,17.62
2023-03-22T04:10:50.696Z,17.67
2023-03-22T04:11:13.283Z,17.70
2023-03-22T04:11:36.083Z,17.64
2023-03-22T04:12:00.190Z,17.71
2023-03-22T04:12:21.795Z,17.53
2023-03-22T04:13:03.431Z,17.61
2023-03-22T04:13:25.730Z,17.60
2023-03-22T04:13:51.263Z,17.60
2023-03-22T04:14:16.337Z,17.68
2023-03-22T04:14:41.799Z,17.73
2023-03-22T04:15:14.751Z,17.72
2023-03-22T04:15:39.445Z,17.79
2023-03-22T04:16:07.316Z,17.82
2023-03-22T04:16:31.938Z,17.85
2023-03-22T04:16:54.857Z,17.84
2023-03-22T04:17:19.756Z,17.79
2023-03-22T04:17:41.974Z,17.85
2023-03-22T04:18:04.848Z,17.72
2023-03-22T04:18:29.624Z,17.84
2023-03-22T04:18:53.646Z,17.87
2023-03-22T04:19:16.223Z,17.88
2023-03-22T04:19:37.824Z,17.91
2023-03-22T04:19:59.663Z,17.68
2023-03-22T04:20:22.296Z,17.68
2023-03-22T04:20:49.396Z,17.62
2023-03-22T04:21:12.302Z,17.66
2023-03-22T04:22:07.235Z,17.72
2023-03-22T04:22:29.094Z,17.64
2023-03-22T04:22:52.559Z,17.66
2023-03-22T04:23:14.921Z,17.68
2023-03-22T04:23:36.925Z,17.69
2023-03-22T04:23:59.883Z,17.72
2023-03-22T04:24:24.364Z,17.74
2023-03-22T04:24:50.092Z,17.78
2023-03-22T04:25:18.106Z,17.80
2023-03-22T04:25:50.502Z,17.75
2023-03-22T04:26:21.415Z,17.78
2023-03-22T04:27:00.095Z,17.68
2023-03-22T04:27:30.843Z,17.61
2023-03-22T04:27:56.353Z,17.69
2023-03-22T04:28:19.875Z,17.68
2023-03-22T04:28:43.438Z,17.68
2023-03-22T04:29:06.617Z,17.65
2023-03-22T04:29:32.066Z,17.76
2023-03-22T04:30:07.596Z,17.67
2023-03-22T04:30:51.873Z,17.74
2023-03-22T04:31:37.577Z,17.80
2023-03-22T04:32:19.467Z,17.83
2023-03-22T04:32:41.098Z,17.85
2023-03-22T04:33:07.264Z,17.86
2023-03-22T04:33:54.767Z,17.85
2023-03-22T04:34:38.778Z,17.89
2023-03-22T04:35:06.369Z,17.92
2023-03-22T04:35:28.263Z,17.91
2023-03-22T04:35:50.610Z,17.95
2023-03-22T04:36:17.473Z,17.85
2023-03-22T04:37:02.329Z,17.84
2023-03-22T04:37:45.644Z,17.89
2023-03-22T04:38:12.957Z,17.91
2023-03-22T04:38:35.408Z,17.90
2023-03-22T04:38:57.639Z,17.92
2023-03-22T04:39:21.145Z,17.90
2023-03-22T04:39:51.992Z,17.91
2023-03-22T04:40:17.446Z,17.92
2023-03-22T04:41:02.181Z,17.94
2023-03-22T04:41:35.939Z,17.90
2023-03-22T04:42:00.110Z,17.92
2023-03-22T04:42:23.407Z,17.92
2023-03-22T04:42:57.620Z,17.95
2023-03-22T04:43:39.276Z,17.98
2023-03-22T04:44:05.981Z,17.98
2023-03-22T04:44:32.692Z,18.00
2023-03-22T04:44:54.570Z,17.98
2023-03-22T04:45:16.411Z,17.77
2023-03-22T04:45:50.985Z,17.98
2023-03-22T04:46:17.811Z,17.96
2023-03-22T04:46:44.975Z,18.00
2023-03-22T04:47:06.835Z,17.96
2023-03-22T04:47:30.261Z,18.02
2023-03-22T04:47:56.519Z,18.05
2023-03-22T04:48:22.120Z,18.04
2023-03-22T04:48:44.755Z,18.05
2023-03-22T04:49:07.833Z,18.02
2023-03-22T04:49:34.887Z,17.95
2023-03-22T04:49:57.366Z,18.06
2023-03-22T04:50:20.883Z,18.07
2023-03-22T04:50:47.787Z,18.06
2023-03-22T04:51:11.409Z,17.99
2023-03-22T04:51:39.643Z,18.07
2023-03-22T04:52:37.451Z,18.02
2023-03-22T04:52:59.703Z,18.04
2023-03-22T04:53:27.125Z,18.02
2023-03-22T04:53:53.125Z,18.07
2023-03-22T04:54:14.850Z,17.87
2023-03-22T04:54:38.729Z,18.07
2023-03-22T04:55:01.228Z,18.01
2023-03-22T04:55:23.936Z,18.04
2023-03-22T04:55:45.592Z,18.02
2023-03-22T04:56:11.758Z,18.02
2023-03-22T04:56:33.662Z,17.95
2023-03-22T04:56:56.537Z,17.94
2023-03-22T04:57:20.000Z,17.94
2023-03-22T04:57:43.126Z,17.94
2023-03-22T04:58:05.483Z,17.87
2023-03-22T04:58:28.159Z,17.89
2023-03-22T04:58:49.800Z,17.88
2023-03-22T04:59:11.543Z,17.90
2023-03-22T04:59:33.268Z,17.91
2023-03-22T04:59:56.117Z,17.93
2023-03-22T05:00:18.687Z,17.95
2023-03-22T05:00:42.313Z,17.95
2023-03-22T05:01:05.377Z,17.79
2023-03-22T05:01:27.208Z,17.88
2023-03-22T05:01:59.999Z,17.89
2023-03-22T05:02:26.410Z,17.86
2023-03-22T05:02:49.598Z,17.85
2023-03-22T05:03:39.249Z,17.84
2023-03-22T05:04:01.062Z,17.84
2023-03-22T05:04:23.015Z,17.87
2023-03-22T05:04:50.323Z,17.87
2023-03-22T05:05:25.906Z,17.83
2023-03-22T05:05:52.659Z,17.89
2023-03-22T05:06:16.163Z,17.87
2023-03-22T05:06:48.995Z,17.89
2023-03-22T05:07:17.973Z,17.91
2023-03-22T05:07:45.928Z,17.92
2023-03-22T05:08:07.610Z,17.90
2023-03-22T05:08:30.665Z,17.82
2023-03-22T05:08:53.291Z,17.91
2023-03-22T05:09:16.879Z,17.96
2023-03-22T05:09:38.574Z,17.96
2023-03-22T05:10:00.550Z,17.97
2023-03-22T05:10:23.211Z,17.99
2023-03-22T05:10:44.882Z,17.96
2023-03-22T05:11:10.211Z,17.97
2023-03-22T05:11:31.983Z,17.94
2023-03-22T05:12:10.425Z,17.95
2023-03-22T05:12:44.913Z,17.99
2023-03-22T05:13:13.142Z,17.98
2023-03-22T05:13:39.960Z,17.98
2023-03-22T05:14:02.650Z,17.94
2023-03-22T05:14:27.248Z,17.92
2023-03-22T05:14:52.248Z,17.76
2023-03-22T05:15:19.403Z,17.77
2023-03-22T05:15:45.543Z,17.79
2023-03-22T05:16:10.155Z,17.77
2023-03-22T05:16:40.617Z,17.79
2023-03-22T05:17:03.830Z,17.66
2023-03-22T05:17:28.737Z,17.55
2023-03-22T05:17:52.425Z,17.57
2023-03-22T05:18:15.430Z,17.61
2023-03-22T05:18:42.332Z,17.66
2023-03-22T05:19:04.079Z,17.69
2023-03-22T05:19:25.867Z,17.71
2023-03-22T05:19:47.729Z,17.72
2023-03-22T05:20:12.417Z,17.74
2023-03-22T05:20:36.470Z,17.78
2023-03-22T05:21:06.828Z,17.76
2023-03-22T05:21:36.588Z,17.70
2023-03-22T05:22:02.101Z,17.64
2023-03-22T05:22:40.427Z,17.60
2023-03-22T05:23:05.048Z,17.61
2023-03-22T05:23:28.170Z,17.54
2023-03-22T05:23:51.765Z,17.56
2023-03-22T05:24:14.743Z,17.53
2023-03-22T05:24:40.113Z,17.54
2023-03-22T05:25:08.355Z,17.58
2023-03-22T05:25:30.759Z,17.60
2023-03-22T05:25:54.471Z,17.50
2023-03-22T05:26:20.417Z,17.53
2023-03-22T05:26:42.395Z,17.43
2023-03-22T05:27:05.749Z,17.44
2023-03-22T05:27:31.664Z,17.37
2023-03-22T05:28:01.919Z,17.33
2023-03-22T05:28:44.040Z,17.38
2023-03-22T05:29:12.724Z,17.32
2023-03-22T05:29:56.783Z,17.25
2023-03-22T05:30:25.229Z,17.35
2023-03-22T05:30:56.952Z,17.35
2023-03-22T05:31:41.603Z,17.34
2023-03-22T05:32:03.343Z,17.40
2023-03-22T05:32:29.213Z,17.32
2023-03-22T05:32:50.931Z,17.46
2023-03-22T05:33:13.181Z,17.44
2023-03-22T05:33:39.399Z,17.49
2023-03-22T05:34:04.503Z,17.51
2023-03-22T05:34:35.555Z,17.41
2023-03-22T05:35:06.934Z,17.48
2023-03-22T05:35:36.150Z,17.43
2023-03-22T05:35:58.205Z,17.46
2023-03-22T05:36:23.094Z,17.52
2023-03-22T05:37:04.658Z,17.48
2023-03-22T05:37:46.022Z,17.43
2023-03-22T05:38:10.267Z,17.33
2023-03-22T05:38:36.282Z,17.43
2023-03-22T05:38:59.418Z,17.43
2023-03-22T05:39:21.325Z,17.44
2023-03-22T05:39:43.849Z,17.45
2023-03-22T05:40:10.555Z,17.33
2023-03-22T05:40:36.528Z,17.35
2023-03-22T05:40:58.339Z,17.42
2023-03-22T05:41:22.053Z,17.50
2023-03-22T05:41:43.779Z,17.51
2023-03-22T05:42:06.631Z,17.51
2023-03-22T05:42:30.668Z,17.53
2023-03-22T05:42:52.790Z,17.54
2023-03-22T05:43:20.288Z,17.56
2023-03-22T05:43:44.577Z,17.57
2023-03-22T05:44:06.628Z,17.41
2023-03-22T05:44:30.808Z,17.38
2023-03-22T05:45:02.482Z,17.49